Archival Weather

General Mitchell Intl

Milwaukee, Wisconsin (KMKE)

Report from: Wednesday, December 6, 2023 9:52 AM CST
Current time: Wednesday, April 24, 2024 3:09 PM CDT

Current weather – Weather history – Daily summaries
Weather forecast

Temperature2.2°C (36.0°F)
Wind chill-1.7°C (29.0°F)
Dew point-5.0°C (23.0°F)
Winds 8 kts (4.1 m/s, 9.2 mph) West (280°)
Visibility10 mi. (16.1 km)
Clouds Ceiling: Broken clouds 2,400 ft. (732 m)
Altimeter30.26 in.Hg (1025 mB)
Relative humidity59 %
Density altitude-1,908 ft. (-582 m)
Sea-level pressure102.6 kPa (1026 mB, 30.29 in.Hg)
Remarks Automated weather observing station with precipitation discriminator
Flight conditions Marginal Visual Meteorological Conditions
Raw dataKMKE 061552Z 28008KT 10SM BKN024 02/M05 A3026 RMK AO2 SLP256 T00221050
An error has occurred. This application may no longer respond until reloaded. Reload 🗙